createdAt,value
2018-07-28T00:02:03.759Z,70.40
2018-07-28T00:04:32.897Z,70.50
2018-07-28T00:07:01.917Z,70.40
2018-07-28T00:09:30.981Z,69.80
2018-07-28T00:12:00.162Z,71.20
2018-07-28T00:16:57.915Z,71.50
2018-07-28T00:19:29.336Z,72.40
2018-07-28T00:21:58.743Z,71.60
2018-07-28T00:24:27.812Z,73.80
2018-07-28T00:26:56.818Z,73.40
2018-07-28T00:29:30.049Z,74.30
2018-07-28T00:31:59.374Z,75.50
2018-07-28T00:34:28.377Z,76.00
2018-07-28T00:36:57.598Z,75.40
2018-07-28T00:39:26.816Z,75.90
2018-07-28T00:41:55.919Z,78.60
2018-07-28T00:46:53.923Z,77.80
2018-07-28T00:49:22.958Z,79.40
2018-07-28T00:51:52.228Z,79.90
2018-07-28T00:54:21.335Z,81.00
2018-07-28T00:56:50.371Z,81.80
2018-07-28T00:59:19.376Z,82.50
2018-07-28T01:01:48.363Z,82.10
2018-07-28T01:04:17.388Z,80.40
2018-07-28T01:09:15.013Z,81.60
2018-07-28T01:11:44.047Z,82.30
2018-07-28T01:14:13.092Z,84.30
2018-07-28T01:16:42.319Z,84.70
2018-07-28T01:19:11.353Z,82.30
2018-07-28T01:21:40.650Z,82.60
2018-07-28T01:24:09.708Z,83.60
2018-07-28T01:26:38.832Z,82.00
2018-07-28T01:29:13.345Z,83.40
2018-07-28T01:31:42.366Z,82.30
2018-07-28T01:34:12.625Z,82.40
2018-07-28T01:36:41.641Z,85.00
2018-07-28T01:39:12.591Z,85.30
2018-07-28T01:44:11.420Z,88.60
2018-07-28T01:46:40.850Z,88.90
2018-07-28T01:49:09.873Z,87.90
2018-07-28T01:51:39.014Z,86.10
2018-07-28T01:54:10.309Z,90.10
2018-07-28T01:56:39.493Z,90.40
2018-07-28T01:59:08.510Z,90.20
2018-07-28T02:01:37.805Z,89.20
2018-07-28T02:04:06.944Z,90.10
2018-07-28T02:06:35.967Z,90.00
2018-07-28T02:09:08.017Z,90.70
2018-07-28T02:11:37.034Z,90.60
2018-07-28T02:14:06.029Z,90.20
2018-07-28T02:16:35.275Z,90.10
2018-07-28T02:19:04.435Z,91.20
2018-07-28T02:21:34.746Z,91.50
2018-07-28T02:26:32.577Z,91.40
2018-07-28T02:29:01.714Z,91.30
2018-07-28T02:31:31.088Z,90.80
2018-07-28T02:34:00.106Z,91.00
2018-07-28T02:36:29.179Z,90.90
2018-07-28T02:38:58.258Z,90.60
2018-07-28T02:41:27.418Z,90.40
2018-07-28T02:46:25.577Z,91.00
2018-07-28T02:48:54.757Z,91.80
2018-07-28T02:51:23.832Z,91.80
2018-07-28T02:53:52.987Z,92.70
2018-07-28T02:56:22.084Z,93.20
2018-07-28T02:58:51.113Z,93.10
2018-07-28T03:01:20.267Z,92.10
2018-07-28T03:03:49.257Z,91.50
2018-07-28T03:06:18.359Z,91.10
2018-07-28T03:08:47.347Z,90.70
2018-07-28T03:13:45.356Z,90.70
2018-07-28T03:16:15.503Z,90.70
2018-07-28T03:18:44.702Z,91.00
2018-07-28T03:21:13.973Z,91.30
2018-07-28T03:23:43.000Z,91.60
2018-07-28T03:26:12.141Z,92.20
2018-07-28T03:28:41.213Z,92.60
2018-07-28T03:36:08.235Z,93.40
2018-07-28T03:38:37.285Z,93.50
2018-07-28T03:43:35.314Z,94.20
2018-07-28T03:46:04.553Z,94.20
2018-07-28T03:51:04.313Z,94.60
2018-07-28T03:53:33.332Z,94.80
2018-07-28T03:56:02.392Z,95.20
2018-07-28T03:58:31.397Z,95.10
2018-07-28T04:01:00.462Z,95.40
2018-07-28T04:03:29.488Z,95.70
2018-07-28T04:05:58.577Z,95.80
2018-07-28T04:08:27.557Z,95.80
2018-07-28T04:10:56.965Z,96.10
2018-07-28T04:13:25.962Z,96.20
2018-07-28T04:15:54.950Z,96.00
2018-07-28T04:18:23.934Z,96.10
2018-07-28T04:20:53.386Z,96.20
2018-07-28T04:23:22.544Z,96.30
2018-07-28T04:25:51.568Z,96.50
2018-07-28T04:28:20.707Z,96.10
2018-07-28T04:30:49.725Z,96.70
2018-07-28T04:33:18.739Z,96.40
2018-07-28T04:35:48.001Z,96.40
2018-07-28T04:38:17.233Z,96.50
2018-07-28T04:40:46.657Z,96.90
2018-07-28T04:43:15.913Z,96.80
2018-07-28T04:45:44.983Z,96.60
2018-07-28T04:48:14.421Z,96.30
2018-07-28T04:50:43.565Z,96.00
2018-07-28T04:53:12.626Z,95.70
2018-07-28T04:55:41.767Z,95.60
2018-07-28T04:58:10.926Z,95.20
2018-07-28T05:00:39.980Z,94.20
2018-07-28T05:03:09.362Z,94.10
2018-07-28T05:05:38.466Z,93.80
2018-07-28T05:08:07.508Z,93.70
2018-07-28T05:10:36.520Z,93.80
2018-07-28T05:15:34.330Z,92.20
2018-07-28T05:18:04.563Z,92.40
2018-07-28T05:20:33.735Z,92.40
2018-07-28T05:23:03.044Z,92.80
2018-07-28T05:25:32.251Z,91.90
2018-07-28T05:28:01.293Z,91.30
2018-07-28T05:30:30.425Z,90.80
2018-07-28T05:32:59.525Z,90.40
2018-07-28T05:35:28.525Z,90.30
2018-07-28T05:37:57.479Z,90.10
2018-07-28T05:40:26.512Z,90.10
2018-07-28T05:42:55.854Z,90.30
2018-07-28T05:45:24.954Z,91.10
2018-07-28T05:47:54.083Z,90.70
2018-07-28T05:50:23.083Z,88.50
2018-07-28T05:52:52.059Z,89.90
2018-07-28T05:55:21.115Z,87.80
2018-07-28T05:57:50.102Z,89.30
2018-07-28T06:00:19.109Z,86.10
2018-07-28T06:02:48.302Z,87.10
2018-07-28T06:05:17.294Z,83.50
2018-07-28T06:07:46.406Z,82.30
2018-07-28T06:10:15.437Z,80.00
2018-07-28T06:12:44.541Z,80.20
2018-07-28T06:15:13.558Z,81.90
2018-07-28T06:17:42.682Z,83.30
2018-07-28T06:20:11.673Z,85.40
2018-07-28T06:22:40.820Z,87.00
2018-07-28T06:25:09.876Z,88.20
2018-07-28T06:27:38.869Z,89.90
2018-07-28T06:30:09.031Z,90.20
2018-07-28T06:32:40.377Z,90.30
2018-07-28T06:35:09.375Z,91.10
2018-07-28T06:37:38.389Z,91.00
2018-07-28T06:42:36.006Z,91.10
2018-07-28T06:45:06.012Z,91.10
2018-07-28T06:47:35.112Z,91.30
2018-07-28T06:50:04.401Z,92.00
2018-07-28T06:52:33.425Z,91.60
2018-07-28T06:55:02.706Z,91.80
2018-07-28T06:57:33.196Z,92.40
2018-07-28T07:02:54.081Z,93.40
2018-07-28T07:05:23.124Z,95.60
2018-07-28T07:07:52.588Z,94.10
2018-07-28T07:10:21.647Z,95.80
2018-07-28T07:12:50.810Z,97.10
2018-07-28T07:15:20.043Z,96.80
2018-07-28T07:17:49.223Z,96.90
2018-07-28T07:20:18.417Z,96.40
2018-07-28T07:22:47.532Z,95.10
2018-07-28T07:25:17.445Z,97.20
2018-07-28T07:27:46.659Z,98.00
2018-07-28T07:30:15.704Z,97.80
2018-07-28T07:32:44.850Z,97.00
2018-07-28T07:35:14.041Z,97.10
2018-07-28T07:37:43.448Z,97.50
2018-07-28T07:40:12.549Z,98.00
2018-07-28T07:42:41.625Z,98.20
2018-07-28T07:45:12.015Z,97.70
2018-07-28T07:47:48.773Z,97.70
2018-07-28T07:50:18.862Z,97.80
2018-07-28T07:52:47.873Z,97.00
2018-07-28T07:55:16.922Z,97.60
2018-07-28T07:57:45.933Z,97.00
2018-07-28T08:00:15.175Z,97.00
2018-07-28T08:02:44.486Z,96.60
2018-07-28T08:05:13.551Z,96.20
2018-07-28T08:07:42.774Z,96.50
2018-07-28T08:10:11.844Z,95.70
2018-07-28T08:12:40.863Z,95.90
2018-07-28T08:15:09.983Z,95.50
2018-07-28T08:17:39.297Z,95.40
2018-07-28T08:20:08.386Z,95.80
2018-07-28T08:22:37.426Z,96.00
2018-07-28T08:25:06.445Z,96.80
2018-07-28T08:27:35.852Z,96.80
2018-07-28T08:30:05.715Z,96.30
2018-07-28T08:32:34.821Z,95.80
2018-07-28T08:35:04.723Z,95.10
2018-07-28T08:37:35.451Z,95.80
2018-07-28T08:40:05.672Z,95.80
2018-07-28T08:42:34.957Z,95.60
2018-07-28T08:45:04.547Z,95.30
2018-07-28T08:47:33.586Z,94.10
2018-07-28T08:50:02.731Z,94.30
2018-07-28T08:52:31.904Z,93.40
2018-07-28T08:55:00.923Z,92.70
2018-07-28T08:57:30.030Z,92.50
2018-07-28T08:59:59.030Z,93.40
2018-07-28T09:02:28.104Z,92.30
2018-07-28T09:04:57.309Z,92.50
2018-07-28T09:07:26.331Z,92.60
2018-07-28T09:09:55.344Z,92.80
2018-07-28T09:12:24.365Z,92.30
2018-07-28T09:14:53.501Z,91.50
2018-07-28T09:17:22.548Z,91.90
2018-07-28T09:19:51.546Z,91.00
2018-07-28T09:22:20.574Z,89.90
2018-07-28T09:24:49.574Z,89.00
2018-07-28T09:27:19.015Z,83.10
2018-07-28T09:29:47.962Z,83.90
2018-07-28T09:34:45.870Z,84.40
2018-07-28T09:37:15.059Z,82.80
2018-07-28T09:39:44.294Z,83.70
2018-07-28T09:42:13.475Z,84.90
2018-07-28T09:44:42.801Z,85.90
2018-07-28T09:47:12.022Z,85.70
2018-07-28T09:52:10.066Z,86.90
2018-07-28T09:54:39.137Z,86.60
2018-07-28T09:57:08.490Z,84.50
2018-07-28T09:59:37.838Z,85.10
2018-07-28T10:02:07.363Z,86.10
2018-07-28T10:04:36.480Z,86.30
2018-07-28T10:07:07.148Z,85.50
2018-07-28T10:09:36.307Z,86.80
2018-07-28T10:12:05.475Z,87.40
2018-07-28T10:14:34.586Z,87.10
2018-07-28T10:17:03.822Z,87.70
2018-07-28T10:19:32.975Z,86.80
2018-07-28T10:22:02.010Z,84.80
2018-07-28T10:24:31.138Z,84.40
2018-07-28T10:29:28.960Z,85.30
2018-07-28T10:31:58.051Z,91.00
2018-07-28T10:34:27.217Z,92.30
2018-07-28T10:36:56.312Z,93.10
2018-07-28T10:39:25.505Z,93.60
2018-07-28T10:41:54.529Z,93.80
2018-07-28T10:44:23.728Z,93.40
2018-07-28T10:49:21.572Z,94.40
2018-07-28T10:51:50.701Z,94.70
2018-07-28T10:54:19.781Z,93.30
2018-07-28T10:56:48.785Z,94.40
2018-07-28T10:59:17.818Z,94.10
2018-07-28T11:01:46.839Z,93.70
2018-07-28T11:04:16.066Z,94.50
2018-07-28T11:06:45.181Z,94.60
2018-07-28T11:09:14.354Z,95.10
2018-07-28T11:11:43.401Z,94.20
2018-07-28T11:14:12.387Z,94.10
2018-07-28T11:16:41.702Z,93.10
2018-07-28T11:19:10.879Z,92.70
2018-07-28T11:21:40.228Z,90.60
2018-07-28T11:24:09.315Z,85.10
2018-07-28T11:26:38.485Z,85.10
2018-07-28T11:29:07.636Z,83.10
2018-07-28T11:31:48.304Z,79.40
2018-07-28T11:34:28.989Z,79.70
2018-07-28T11:37:09.494Z,79.70
2018-07-28T11:39:49.904Z,80.50
2018-07-28T11:42:30.865Z,80.20
2018-07-28T11:45:03.940Z,76.70
2018-07-28T11:47:32.969Z,78.10
2018-07-28T11:50:02.010Z,78.10
2018-07-28T11:54:59.973Z,75.20
2018-07-28T11:57:29.018Z,71.70
2018-07-28T11:59:58.111Z,69.90
2018-07-28T12:02:38.384Z,67.90
2018-07-28T12:05:08.078Z,68.00
2018-07-28T12:07:46.558Z,67.70
2018-07-28T12:10:16.588Z,68.80
2018-07-28T12:12:46.442Z,67.70
2018-07-28T12:15:15.518Z,69.20
2018-07-28T12:17:44.581Z,67.90
2018-07-28T12:20:13.755Z,67.80
2018-07-28T12:22:43.020Z,68.40
2018-07-28T12:25:12.137Z,65.20
2018-07-28T12:27:41.375Z,65.50
2018-07-28T12:30:11.558Z,65.50
2018-07-28T12:32:41.001Z,68.70
2018-07-28T12:35:09.983Z,68.00
2018-07-28T12:37:39.027Z,67.70
2018-07-28T12:40:08.065Z,65.10
2018-07-28T12:42:37.229Z,63.50
2018-07-28T12:45:06.341Z,64.20
2018-07-28T12:47:35.426Z,65.20
2018-07-28T12:50:04.630Z,64.70
2018-07-28T12:52:33.635Z,63.80
2018-07-28T12:55:02.754Z,64.50
2018-07-28T12:57:31.942Z,61.90
2018-07-28T13:00:01.223Z,60.80
2018-07-28T13:02:30.398Z,61.00
2018-07-28T13:04:59.424Z,60.00
2018-07-28T13:09:57.065Z,60.00
2018-07-28T13:12:26.086Z,57.20
2018-07-28T13:14:55.290Z,59.80
2018-07-28T13:17:24.262Z,58.90
2018-07-28T13:19:53.338Z,59.70
2018-07-28T13:22:22.356Z,59.40
2018-07-28T13:24:51.393Z,60.20
2018-07-28T13:27:20.544Z,59.70
2018-07-28T13:29:50.059Z,60.80
2018-07-28T13:32:19.660Z,61.10
2018-07-28T13:34:48.872Z,59.20
2018-07-28T13:37:18.085Z,59.20
2018-07-28T13:39:47.275Z,60.20
2018-07-28T13:42:16.521Z,59.10
2018-07-28T13:44:45.736Z,58.00
2018-07-28T13:49:44.247Z,58.90
2018-07-28T13:54:42.300Z,59.00
2018-07-28T13:57:11.595Z,57.70
2018-07-28T13:59:40.748Z,57.50
2018-07-28T14:02:10.006Z,57.30
2018-07-28T14:04:39.198Z,56.40
2018-07-28T14:07:08.195Z,56.60
2018-07-28T14:09:37.281Z,57.40
2018-07-28T14:12:06.527Z,58.10
2018-07-28T14:14:35.719Z,59.00
2018-07-28T14:17:04.898Z,59.30
2018-07-28T14:19:33.965Z,60.60
2018-07-28T14:22:02.942Z,65.00
2018-07-28T14:24:33.241Z,67.10
2018-07-28T14:27:02.273Z,67.70
2018-07-28T14:29:31.308Z,66.60
2018-07-28T14:32:00.675Z,67.30
2018-07-28T14:34:29.874Z,67.70
2018-07-28T14:36:58.920Z,67.90
2018-07-28T14:39:28.008Z,66.00
2018-07-28T14:41:57.083Z,66.90
2018-07-28T14:44:26.105Z,68.80
2018-07-28T14:46:55.170Z,69.40
2018-07-28T14:49:24.644Z,69.00
2018-07-28T14:51:53.847Z,69.10
2018-07-28T14:54:23.040Z,71.50
2018-07-28T14:56:52.151Z,72.50
2018-07-28T14:59:21.191Z,72.50
2018-07-28T15:01:50.545Z,74.30
2018-07-28T15:04:19.956Z,70.40
2018-07-28T15:06:49.281Z,67.40
2018-07-28T15:09:18.320Z,70.20
2018-07-28T15:14:16.324Z,75.10
2018-07-28T15:16:45.529Z,78.00
2018-07-28T15:19:14.606Z,78.40
2018-07-28T15:21:44.309Z,77.90
2018-07-28T15:24:13.322Z,76.80
2018-07-28T15:26:42.309Z,76.40
2018-07-28T15:29:11.454Z,77.60
2018-07-28T15:31:40.821Z,77.40
2018-07-28T15:34:10.276Z,79.00
2018-07-28T15:36:39.659Z,80.40
2018-07-28T15:39:09.680Z,81.10
2018-07-28T15:41:41.525Z,79.90
2018-07-28T15:44:10.844Z,78.60
2018-07-28T15:46:41.266Z,77.60
2018-07-28T15:49:11.261Z,77.50
2018-07-28T15:51:41.522Z,77.70
2018-07-28T15:54:10.855Z,77.80
2018-07-28T15:56:40.271Z,75.60
2018-07-28T15:59:09.540Z,75.00
2018-07-28T16:01:38.757Z,74.40
2018-07-28T16:04:07.736Z,74.70
2018-07-28T16:06:36.812Z,75.20
2018-07-28T16:09:10.645Z,75.80
2018-07-28T16:11:39.767Z,76.10
2018-07-28T16:14:08.783Z,77.00
2018-07-28T16:16:37.799Z,75.80
2018-07-28T16:19:06.904Z,74.30
2018-07-28T16:21:36.108Z,74.70
2018-07-28T16:24:05.131Z,74.60
2018-07-28T16:26:34.170Z,73.50
2018-07-28T16:29:03.376Z,72.50
2018-07-28T16:31:32.613Z,72.60
2018-07-28T16:34:01.643Z,72.90
2018-07-28T16:36:30.757Z,74.00
2018-07-28T16:38:59.914Z,74.10
2018-07-28T16:41:29.282Z,74.50
2018-07-28T16:43:58.486Z,74.70
2018-07-28T16:46:27.665Z,76.20
2018-07-28T16:48:56.721Z,76.10
2018-07-28T16:51:26.093Z,76.50
2018-07-28T16:53:55.249Z,77.70
2018-07-28T16:56:25.331Z,78.30
2018-07-28T16:58:54.510Z,77.60
2018-07-28T17:01:23.890Z,77.90
2018-07-28T17:03:53.128Z,78.80
2018-07-28T17:06:23.665Z,79.40
2018-07-28T17:08:52.785Z,79.30
2018-07-28T17:11:21.923Z,79.30
2018-07-28T17:13:51.268Z,79.40
2018-07-28T17:16:20.245Z,79.80
2018-07-28T17:18:49.475Z,80.50
2018-07-28T17:21:18.696Z,79.80
2018-07-28T17:23:47.792Z,79.70
2018-07-28T17:26:16.889Z,80.00
2018-07-28T17:31:14.846Z,81.30
2018-07-28T17:33:44.023Z,81.20
2018-07-28T17:36:13.217Z,80.60
2018-07-28T17:38:43.436Z,80.50
2018-07-28T17:41:13.406Z,80.70
2018-07-28T17:43:42.389Z,80.20
2018-07-28T17:46:11.448Z,80.50
2018-07-28T17:48:40.474Z,80.30
2018-07-28T17:51:09.525Z,80.00
2018-07-28T17:53:38.882Z,80.40
2018-07-28T17:56:08.467Z,80.30
2018-07-28T17:58:37.961Z,80.50
2018-07-28T18:01:07.568Z,80.10
2018-07-28T18:03:37.819Z,80.80
2018-07-28T18:08:36.434Z,80.10
2018-07-28T18:11:05.567Z,80.30
2018-07-28T18:13:34.975Z,80.30
2018-07-28T18:16:04.139Z,80.00
2018-07-28T18:18:33.369Z,80.30
2018-07-28T18:21:03.639Z,80.30
2018-07-28T18:23:32.980Z,80.70
2018-07-28T18:26:02.286Z,80.20
2018-07-28T18:28:31.748Z,79.90
2018-07-28T18:31:00.990Z,79.50
2018-07-28T18:33:30.153Z,79.00
2018-07-28T18:35:59.373Z,79.30
2018-07-28T18:38:28.604Z,79.40
2018-07-28T18:40:57.986Z,78.50
2018-07-28T18:43:27.032Z,79.30
2018-07-28T18:45:56.112Z,78.60
2018-07-28T18:48:25.758Z,78.40
2018-07-28T18:50:55.073Z,79.00
2018-07-28T18:55:53.146Z,79.30
2018-07-28T18:58:22.304Z,79.20
2018-07-28T19:00:51.463Z,79.30
2018-07-28T19:03:20.599Z,79.50
2018-07-28T19:05:50.052Z,79.20
2018-07-28T19:08:19.197Z,79.50
2018-07-28T19:10:48.392Z,79.70
2018-07-28T19:13:24.181Z,80.50
2018-07-28T19:15:53.316Z,81.30
2018-07-28T19:18:28.955Z,81.30
2018-07-28T19:20:57.986Z,82.00
2018-07-28T19:23:32.485Z,81.80
2018-07-28T19:26:02.348Z,82.30
2018-07-28T19:28:36.924Z,82.60
2018-07-28T19:31:06.871Z,82.60
2018-07-28T19:33:35.792Z,82.70
2018-07-28T19:36:10.711Z,82.70
2018-07-28T19:38:39.864Z,83.30
2018-07-28T19:41:09.417Z,84.10
2018-07-28T19:43:38.587Z,83.80
2018-07-28T19:46:07.846Z,84.90
2018-07-28T19:48:37.350Z,84.70
2018-07-28T19:53:35.307Z,85.10
2018-07-28T19:56:04.598Z,85.00
2018-07-28T19:58:33.981Z,86.70
2018-07-28T20:01:03.766Z,86.40
2018-07-28T20:03:32.771Z,86.80
2018-07-28T20:06:02.230Z,87.20
2018-07-28T20:08:32.043Z,87.60
2018-07-28T20:11:01.433Z,88.20
2018-07-28T20:13:31.966Z,88.70
2018-07-28T20:18:29.689Z,89.90
2018-07-28T20:20:58.890Z,89.80
2018-07-28T20:23:28.122Z,89.50
2018-07-28T20:28:26.304Z,90.40
2018-07-28T20:30:55.779Z,90.00
2018-07-28T20:33:25.019Z,90.80
2018-07-28T20:35:54.150Z,90.80
2018-07-28T20:38:23.987Z,90.80
2018-07-28T20:40:53.160Z,90.50
2018-07-28T20:43:22.448Z,90.20
2018-07-28T20:45:51.585Z,90.20
2018-07-28T20:48:20.785Z,90.30
2018-07-28T20:50:49.982Z,90.20
2018-07-28T20:53:19.190Z,90.20
2018-07-28T20:55:48.385Z,90.00
2018-07-28T20:58:17.553Z,90.70
2018-07-28T21:00:46.613Z,90.50
2018-07-28T21:03:15.864Z,90.30
2018-07-28T21:05:45.061Z,90.40
2018-07-28T21:08:14.151Z,90.30
2018-07-28T21:10:43.349Z,90.40
2018-07-28T21:13:12.572Z,90.80
2018-07-28T21:15:41.787Z,90.70
2018-07-28T21:18:10.918Z,90.90
2018-07-28T21:20:40.002Z,91.20
2018-07-28T21:23:09.165Z,91.20
2018-07-28T21:25:38.421Z,91.50
2018-07-28T21:28:07.930Z,91.80
2018-07-28T21:30:36.928Z,92.10
2018-07-28T21:33:06.241Z,92.50
2018-07-28T21:35:35.347Z,92.60
2018-07-28T21:38:04.726Z,92.90
2018-07-28T21:40:33.725Z,93.10
2018-07-28T21:43:03.070Z,93.30
2018-07-28T21:45:32.237Z,93.60
2018-07-28T21:48:01.475Z,93.70
2018-07-28T21:50:30.931Z,93.80
2018-07-28T21:52:59.943Z,93.70
2018-07-28T21:55:29.048Z,93.60
2018-07-28T21:57:58.081Z,94.20
2018-07-28T22:00:28.841Z,94.20
2018-07-28T22:02:58.043Z,93.90
2018-07-28T22:05:27.232Z,94.40
2018-07-28T22:07:56.234Z,94.20
2018-07-28T22:10:25.472Z,94.60
2018-07-28T22:12:54.461Z,94.90
2018-07-28T22:15:23.574Z,94.80
2018-07-28T22:17:52.633Z,95.10
2018-07-28T22:20:21.582Z,95.30
2018-07-28T22:22:51.014Z,94.60
2018-07-28T22:25:20.199Z,94.90
2018-07-28T22:27:49.269Z,94.80
2018-07-28T22:30:18.399Z,94.60
2018-07-28T22:32:47.584Z,94.80
2018-07-28T22:35:16.613Z,94.90
2018-07-28T22:37:45.972Z,95.10
2018-07-28T22:40:14.805Z,95.60
2018-07-28T22:42:50.331Z,95.40
2018-07-28T22:45:20.503Z,95.80
2018-07-28T22:47:49.628Z,96.30
2018-07-28T22:50:18.621Z,96.00
2018-07-28T22:52:48.790Z,96.00
2018-07-28T22:55:17.857Z,96.70
2018-07-28T22:57:47.222Z,97.30
2018-07-28T23:00:16.274Z,97.00
2018-07-28T23:02:45.369Z,96.90
2018-07-28T23:05:14.549Z,97.30
2018-07-28T23:07:44.227Z,97.10
2018-07-28T23:10:13.264Z,97.00
2018-07-28T23:12:43.248Z,96.70
2018-07-28T23:15:12.489Z,97.10
2018-07-28T23:17:42.102Z,97.00
2018-07-28T23:20:11.252Z,97.40
2018-07-28T23:22:40.300Z,97.60
2018-07-28T23:25:09.380Z,97.70
2018-07-28T23:27:38.389Z,98.40
2018-07-28T23:30:09.586Z,98.20
2018-07-28T23:32:39.207Z,98.80
2018-07-28T23:35:08.714Z,98.80
2018-07-28T23:37:37.934Z,98.80
2018-07-28T23:40:07.313Z,99.00
2018-07-28T23:42:36.565Z,98.70
2018-07-28T23:45:06.114Z,98.70
2018-07-28T23:47:35.314Z,98.90
2018-07-28T23:50:04.755Z,98.80
2018-07-28T23:52:33.984Z,98.80
2018-07-28T23:55:03.024Z,98.70
2018-07-28T23:57:32.026Z,98.40
